WN79 weather

Haley Heliport
Winslow, Washington, United States

Public forecast

Using degrees Fahrenheit for public forecast. Weather courtesy of forecast.io.

Closest aviation weather report (METAR) to Haley Heliport

Closest report is Boeing Field King County International Airport, 14.0 nm (25.8 km) SE. Retrieved 2020/07/07 10:53 UTC (32 minutes ago):

KBFI 071053Z 18007KT 10SM BKN024 OVC045 14/09 A3003 RMK AO2 SLP168 T01440094

Closest aviation forecast (TAF) to Haley Heliport

Closest forecast is Boeing Field King County International Airport, 14.0 nm (25.8 km) SE. Retrieved 2020/07/07 06:36 UTC (5 hours ago):

TAF KBFI 070535Z 0706/0806 22008KT P6SM OVC045 FM071400 18008KT P6SM VCSH OVC030 FM072100 18008KT P6SM VCSH BKN040 BKN060